Aviation Digital Data Service (ADDS)

Output produced by METARs form (1022 UTC 20 July 2018)
found at http://aviationweather.gov/adds/metars/
 
LFLY 201000Z AUTO 20003KT 150V260 CAVOK 25/15 Q1015 TEMPO SHRA BECMG SCT070TCU